Blue Ball, Ohio
Current Conditions -  °F | °C
As of 9:53 PM on Saturday 22 Nov 2014 (Local Time) from KMGY Reporting Station
Overcast Overcast  
Wind Chill: 45°   Ceiling: 7500
Heat Index: 49°   Visibility: 10mi
Dew Point: 40°   Wind: 8mph
Humidity: 71%   Direction: 200°SSW
Pressure: 30.06"   Gusts: NA
Location:  39.5216°N, 84.2838°W
Report Text: KMGY 230253Z AUTO 20007KT 10SM SCT060 OVC075 09/04 A3006 RMK AO2 RAB07E35 SLP183 P0002 60002 T00940044 58002
Loading
Personal Weather Stations






























Interactive Weather Map New forecast layout! Learn more

10-Day Weather Forecast

Advertisements
Track Severe Weather on mobile